ADDS METAR Data INFO
IDs: Format: Raw Decoded Include TAF

Data at: 0453 UTC 18 Feb 2018

KHQU 180435Z AUTO 04006KT 10SM SCT050 SCT080 OVC100 13/12 A3016 RMK AO2 T01280117
KHQU 180415Z AUTO 00000KT 10SM SCT060 OVC100 12/12 A3015 RMK AO2 T01240115
KHQU 180355Z AUTO 00000KT 10SM SCT060 OVC100 12/11 A3015 RMK AO2 T01210113
KHQU 180335Z AUTO 00000KT 10SM SCT100 12/11 A3015 RMK AO2 T01210114
KHQU 180315Z AUTO 00000KT 10SM CLR 12/11 A3015 RMK AO2 T01180112
KHQU 180255Z AUTO 00000KT 10SM CLR 12/11 A3014 RMK AO2 T01220113
KHQU 180235Z AUTO 06003KT 10SM CLR 13/12 A3014 RMK AO2 T01250117
KHQU 180215Z AUTO 00000KT 10SM CLR 13/12 A3013 RMK AO2 T01260118
KHQU 180155Z AUTO 00000KT 10SM CLR 13/12 A3013 RMK AO2 T01260118
KHQU 180135Z AUTO 00000KT 10SM CLR 13/12 A3013 RMK AO2 T01310120
KHQU 180115Z AUTO 00000KT 10SM CLR 14/12 A3013 RMK AO2 T01380125
KHQU 180055Z AUTO 06003KT 10SM CLR 14/13 A3013 RMK AO2 T01430126
KHQU 180035Z AUTO 00000KT 10SM CLR 15/13 A3013 RMK AO2 T01480127
KHQU 180015Z AUTO 14004KT 10SM SCT060 15/13 A3012 RMK AO2 T01550131
KHQU 172355Z AUTO 04005KT 10SM SCT060 16/13 A3013 RMK AO2 T01580133 10251 20157 402510146
KHQU 172335Z AUTO 00000KT 10SM SCT070 SCT080 17/13 A3012 RMK AO2 T01650132
KHQU 172315Z AUTO 05005KT 10SM SCT055 SCT065 OVC090 17/13 A3012 RMK AO2 T01700132
KHQU 172255Z AUTO 04006KT 10SM BKN055 BKN065 OVC090 17/14 A3012 RMK AO2 T01750136
KHQU 172235Z AUTO 04009KT 10SM BKN060 OVC090 19/14 A3012 RMK AO2 T01890145
KHQU 172215Z AUTO 14004KT 10SM BKN050 BKN075 BKN090 19/14 A3011 RMK AO2 T01880142
KHQU 172155Z AUTO 06003KT 10SM SCT050 SCT070 BKN075 19/14 A3011 RMK AO2 T01910141
KHQU 172135Z AUTO 08007KT 10SM BKN048 BKN065 BKN080 20/15 A3012 RMK AO2 T01980147
KHQU 172115Z AUTO 07006KT 10SM BKN048 BKN060 OVC085 20/15 A3011 RMK AO2 T02000149
KHQU 172055Z AUTO 08008KT 10SM BKN046 BKN060 OVC070 20/15 A3011 RMK AO2 T02010149
KHQU 172035Z AUTO 05006KT 10SM SCT039 BKN046 OVC070 21/15 A3011 RMK AO2 T02120151
KHQU 172015Z AUTO 09004KT 10SM SCT030 BKN040 OVC050 21/15 A3011 RMK AO2 T02070150
KHQU 171955Z AUTO 05006KT 10SM BKN033 BKN042 OVC055 21/15 A3011 RMK AO2 T02090150
KHQU 171935Z AUTO 27008G15KT 250V310 10SM SCT035 BKN045 OVC080 24/16 A3011 RMK AO2 T02390165
KHQU 171915Z AUTO 27005KT 10SM BKN031 BKN040 OVC060 23/17 A3012 RMK AO2 T02320167
KHQU 171855Z AUTO 28006KT 10SM BKN029 BKN042 OVC070 23/16 A3012 RMK AO2 T02260164
KHQU 171835Z AUTO 28007G15KT 10SM SCT028 BKN040 OVC075 23/16 A3013 RMK AO2 T02290163
KHQU 171815Z AUTO 25008G15KT 220V280 10SM SCT030 BKN046 OVC075 23/17 A3014 RMK AO2 T02320166
KHQU 171755Z AUTO 27010KT 10SM OVC028 23/16 A3015 RMK AO2 T02250163 10228 20148
KHQU 171735Z AUTO 26009KT 10SM BKN026 OVC031 22/16 A3016 RMK AO2 T02220163
KHQU 171715Z AUTO 27008G15KT 210V310 10SM OVC026 22/16 A3017 RMK AO2 T02240163
KHQU 171655Z AUTO 25009KT 200V280 10SM BKN024 OVC038 22/16 A3017 RMK AO2 T02220163
KHQU 171635Z AUTO 27008KT 10SM SCT024 BKN038 OVC045 22/16 A3018 RMK AO2 T02170160
KHQU 171615Z AUTO 26005KT 10SM SCT024 OVC042 21/16 A3018 RMK AO2 T02110158
KHQU 171555Z AUTO 24007KT 10SM SCT024 BKN046 OVC075 21/16 A3019 RMK AO2 T02120156
KHQU 171535Z AUTO 22007KT 10SM SCT048 BKN075 21/16 A3018 RMK AO2 T02130156
KHQU 171515Z AUTO 19006KT 10SM SCT048 OVC065 21/15 A3019 RMK AO2 T02060154
KHQU 171455Z AUTO 16004KT 10SM BKN048 OVC065 19/14 A3020 RMK AO2 T01860145
KHQU 171435Z AUTO 15003KT 10SM OVC048 18/14 A3020 RMK AO2 T01780141
KHQU 171415Z AUTO 00000KT 10SM OVC050 17/14 A3020 RMK AO2 T01720137
KHQU 171355Z AUTO 00000KT 10SM BKN050 OVC070 17/13 A3020 RMK AO2 T01680135
KHQU 171335Z AUTO 00000KT 10SM OVC050 16/14 A3021 RMK AO2 T01650137
KHQU 171315Z AUTO 00000KT 10SM SCT019 OVC050 16/14 A3020 RMK AO2 T01590139
KHQU 171255Z AUTO 00000KT 10SM BKN019 OVC055 15/14 A3020 RMK AO2 T01530139
KHQU 171235Z AUTO 00000KT 10SM BKN021 OVC041 15/14 A3020 RMK AO2 T01510138
KHQU 171215Z AUTO 00000KT 10SM SCT021 OVC039 15/14 A3020 RMK AO2 T01490137
KHQU 171155Z AUTO 00000KT 10SM BKN021 OVC039 15/14 A3020 RMK AO2 T01490137 10189 20146
KHQU 171135Z AUTO 00000KT 10SM BKN021 OVC037 15/14 A3020 RMK AO2 T01480137
KHQU 171115Z AUTO 00000KT 10SM OVC021 15/14 A3019 RMK AO2 T01500137
KHQU 171055Z AUTO 00000KT 10SM OVC021 15/14 A3019 RMK AO2 T01530139
KHQU 171035Z AUTO 00000KT 10SM BKN021 BKN060 16/14 A3019 RMK AO2 T01550139
KHQU 171015Z AUTO 00000KT 10SM BKN060 15/14 A3018 RMK AO2 T01520139
KHQU 170955Z AUTO 00000KT 10SM SCT060 16/14 A3018 RMK AO2 T01640140
KHQU 170935Z AUTO 07003KT 10SM CLR 17/14 A3017 RMK AO2 T01680142
KHQU 170915Z AUTO 04003KT 10SM CLR 17/14 A3017 RMK AO2 T01720144
KHQU 170855Z AUTO 05003KT 10SM SCT021 SCT034 SCT060 17/15 A3017 RMK AO2 T01740146
KHQU 170835Z AUTO 03004KT 10SM SCT021 BKN036 OVC050 18/15 A3017 RMK AO2 T01780149
KHQU 170815Z AUTO 06004KT 10SM SCT038 OVC050 18/15 A3017 RMK AO2 T01770153
KHQU 170755Z AUTO 25003KT 10SM OVC050 17/15 A3016 RMK AO2 T01740152
KHQU 170735Z AUTO 00000KT 10SM OVC050 18/15 A3017 RMK AO2 T01760153
KHQU 170715Z AUTO 00000KT 10SM OVC050 18/15 A3017 RMK AO2 T01810153
KHQU 170655Z AUTO 00000KT 10SM OVC050 18/15 A3017 RMK AO2 T01820155
KHQU 170635Z AUTO 35003KT 10SM OVC050 19/15 A3018 RMK AO2 T01860154
KHQU 170615Z AUTO 34003KT 10SM OVC050 19/16 A3018 RMK AO2 T01880156
KHQU 170555Z AUTO 36004KT 10SM SCT043 OVC050 19/15 A3017 RMK AO2 T01900154 10235 20189
KHQU 170535Z AUTO 02004KT 10SM SCT043 OVC050 19/16 A3017 RMK AO2 T01900159
KHQU 170515Z AUTO 02005KT 10SM SCT023 SCT028 OVC050 19/16 A3016 RMK AO2 T01930160
KHQU 170455Z AUTO 01006KT 10SM BKN026 BKN038 OVC048 19/16 A3016 RMK AO2 T01950160
KHQU 170435Z AUTO 34006KT 10SM BKN028 BKN035 OVC048 20/16 A3016 RMK AO2 T01990160
KHQU 170415Z AUTO 03004KT 10SM OVC028 20/15 A3016 RMK AO2 T02000155
KHQU 170355Z AUTO 34003KT 10SM BKN030 OVC049 21/15 A3016 RMK AO2 T02070153
KHQU 170335Z AUTO 32003KT 10SM SCT030 OVC049 21/15 A3015 RMK AO2 T02080152
KHQU 170315Z AUTO 33003KT 10SM SCT032 SCT039 OVC049 21/15 A3015 RMK AO2 T02090152
KHQU 170255Z AUTO 00000KT 10SM BKN032 OVC040 21/15 A3014 RMK AO2 T02110151
KHQU 170235Z AUTO 35003KT 10SM BKN036 OVC047 21/15 A3014 RMK AO2 T02120150
KHQU 170215Z AUTO 33004KT 10SM OVC045 22/15 A3013 RMK AO2 T02160150
KHQU 170155Z AUTO 34004KT 10SM OVC043 22/15 A3013 RMK AO2 T02180150
KHQU 170135Z AUTO 34004KT 10SM OVC043 22/15 A3012 RMK AO2 T02200149
KHQU 170115Z AUTO 33004KT 10SM OVC047 22/15 A3012 RMK AO2 T02230148
KHQU 170055Z AUTO 33006KT 10SM BKN049 OVC065 22/15 A3011 RMK AO2 T02240147
KHQU 170035Z AUTO 32006KT 10SM SCT042 BKN060 OVC065 23/15 A3011 RMK AO2 T02290147
KHQU 170015Z AUTO 33007KT 10SM BKN044 BKN049 OVC060 23/15 A3011 RMK AO2 T02330146
KHQU 162355Z AUTO 33009G14KT 300V360 10SM BKN046 OVC060 23/15 A3009 RMK AO2 T02350145 10269 20235 402690155
KHQU 162335Z AUTO 32010G16KT 10SM BKN048 OVC060 24/15 A3009 RMK AO2 T02380145
KHQU 162315Z AUTO 33008KT 300V010 10SM OVC060 24/14 A3008 RMK AO2 T02400144
KHQU 162255Z AUTO 33008KT 310V010 10SM OVC060 24/14 A3007 RMK AO2 T02430144
KHQU 162235Z AUTO 32012G17KT 10SM OVC060 25/14 A3005 RMK AO2 T02460142
KHQU 162215Z AUTO 31009G18KT 270V340 10SM OVC060 25/14 A3004 RMK AO2 T02490142
KHQU 162155Z AUTO 32012G17KT 290V350 10SM BKN060 25/14 A3003 RMK AO2 T02510141
KHQU 162135Z AUTO 33011G17KT 10SM SCT060 26/14 A3003 RMK AO2 T02580140
KHQU 162115Z AUTO 31012G22KT 10SM BKN060 26/14 A3002 RMK AO2 T02630139
KHQU 162055Z AUTO 32012G21KT 10SM BKN050 26/14 A3003 RMK AO2 T02610140
KHQU 162035Z AUTO 32016G23KT 280V350 10SM SCT050 26/14 A3003 RMK AO2 T02610137
KHQU 162015Z AUTO 30014G20KT 260V330 10SM SCT050 27/14 A3002 RMK AO2 T02670139
KHQU 161955Z AUTO 33014G21KT 290V010 10SM SCT050 27/14 A3002 RMK AO2 T02660136
KHQU 161935Z AUTO 33013G21KT 10SM BKN050 26/14 A3002 RMK AO2 T02650137
KHQU 161915Z AUTO 33011G21KT 10SM OVC050 26/14 A3003 RMK AO2 T02640137
KHQU 161855Z AUTO 33011G25KT 10SM OVC050 26/14 A3003 RMK AO2 T02650139
KHQU 161835Z AUTO 33010G20KT 300V010 10SM OVC050 26/14 A3004 RMK AO2 T02570138
KHQU 161815Z AUTO 32013G20KT 10SM BKN050 26/14 A3005 RMK AO2 T02610141
KHQU 161755Z AUTO 32013G22KT 10SM BKN047 BKN055 25/14 A3006 RMK AO2 T02530142 10256 20178
KHQU 161735Z AUTO 31010G22KT 260V330 10SM OVC047 25/15 A3007 RMK AO2 T02490146
KHQU 161715Z AUTO 31015G22KT 10SM BKN041 BKN047 24/15 A3008 RMK AO2 T02450148
KHQU 161655Z AUTO 31013G23KT 10SM BKN038 OVC047 24/15 A3009 RMK AO2 T02440149